sensor_id;sensor_type;location;lat;lon;timestamp;pressure;altitude;pressure_sealevel;temperature;humidity
11987;BME280;6053;51.382;6.768;2023-04-29T00:02:03;100942.91;;;14.50;100.00
11987;BME280;6053;51.382;6.768;2023-04-29T00:04:32;100939.41;;;14.54;100.00
11987;BME280;6053;51.382;6.768;2023-04-29T00:07:01;100946.00;;;15.75;100.00
11987;BME280;6053;51.382;6.768;2023-04-29T00:09:29;100952.16;;;16.09;100.00
11987;BME280;6053;51.382;6.768;2023-04-29T00:11:59;100957.59;;;16.21;100.00
11987;BME280;6053;51.382;6.768;2023-04-29T00:14:28;100944.56;;;16.64;100.00
11987;BME280;6053;51.382;6.768;2023-04-29T00:16:56;100961.13;;;15.62;100.00
11987;BME280;6053;51.382;6.768;2023-04-29T00:19:25;100959.38;;;16.05;100.00
11987;BME280;6053;51.382;6.768;2023-04-29T00:21:55;100959.97;;;15.14;100.00
11987;BME280;6053;51.382;6.768;2023-04-29T00:24:23;100961.97;;;15.19;100.00
11987;BME280;6053;51.382;6.768;2023-04-29T00:26:52;100964.63;;;15.52;100.00
11987;BME280;6053;51.382;6.768;2023-04-29T00:29:22;100972.94;;;15.69;100.00
11987;BME280;6053;51.382;6.768;2023-04-29T00:31:50;100965.03;;;16.15;100.00
11987;BME280;6053;51.382;6.768;2023-04-29T00:34:18;100982.47;;;15.78;100.00
11987;BME280;6053;51.382;6.768;2023-04-29T00:36:47;100979.56;;;16.55;100.00
11987;BME280;6053;51.382;6.768;2023-04-29T00:39:15;100984.88;;;15.48;100.00
11987;BME280;6053;51.382;6.768;2023-04-29T00:41:43;100980.34;;;15.42;100.00
11987;BME280;6053;51.382;6.768;2023-04-29T00:44:12;100986.31;;;15.99;100.00
11987;BME280;6053;51.382;6.768;2023-04-29T00:46:42;100985.31;;;15.84;100.00
11987;BME280;6053;51.382;6.768;2023-04-29T00:49:10;100992.53;;;14.97;100.00
11987;BME280;6053;51.382;6.768;2023-04-29T00:51:41;100979.41;;;12.98;100.00
11987;BME280;6053;51.382;6.768;2023-04-29T00:54:10;100994.69;;;12.89;100.00
11987;BME280;6053;51.382;6.768;2023-04-29T00:56:39;100994.94;;;13.92;100.00
11987;BME280;6053;51.382;6.768;2023-04-29T00:59:08;100992.06;;;15.05;100.00
11987;BME280;6053;51.382;6.768;2023-04-29T01:01:38;100999.28;;;13.48;100.00
11987;BME280;6053;51.382;6.768;2023-04-29T01:04:08;100996.28;;;15.07;100.00
11987;BME280;6053;51.382;6.768;2023-04-29T01:06:51;100997.34;;;15.23;100.00
11987;BME280;6053;51.382;6.768;2023-04-29T01:09:38;101006.72;;;15.61;100.00
11987;BME280;6053;51.382;6.768;2023-04-29T01:12:18;101007.31;;;14.35;100.00
11987;BME280;6053;51.382;6.768;2023-04-29T01:15:03;101006.41;;;14.12;100.00
11987;BME280;6053;51.382;6.768;2023-04-29T01:17:38;101013.75;;;15.25;100.00
11987;BME280;6053;51.382;6.768;2023-04-29T01:20:10;101012.66;;;15.48;100.00
11987;BME280;6053;51.382;6.768;2023-04-29T01:22:39;101010.91;;;14.81;100.00
11987;BME280;6053;51.382;6.768;2023-04-29T01:25:09;101017.72;;;15.95;100.00
11987;BME280;6053;51.382;6.768;2023-04-29T01:27:46;101020.88;;;16.31;100.00
11987;BME280;6053;51.382;6.768;2023-04-29T01:30:24;101021.94;;;16.30;100.00
11987;BME280;6053;51.382;6.768;2023-04-29T01:33:00;101028.56;;;15.69;100.00
11987;BME280;6053;51.382;6.768;2023-04-29T01:35:44;101027.41;;;15.92;100.00
11987;BME280;6053;51.382;6.768;2023-04-29T01:38:29;101027.59;;;15.42;100.00
11987;BME280;6053;51.382;6.768;2023-04-29T01:41:09;101029.41;;;15.31;100.00
11987;BME280;6053;51.382;6.768;2023-04-29T01:43:39;101037.53;;;15.76;100.00
11987;BME280;6053;51.382;6.768;2023-04-29T01:46:09;101034.53;;;15.61;100.00
11987;BME280;6053;51.382;6.768;2023-04-29T01:48:38;101033.63;;;14.61;100.00
11987;BME280;6053;51.382;6.768;2023-04-29T01:51:06;101029.69;;;13.83;100.00
11987;BME280;6053;51.382;6.768;2023-04-29T01:53:35;101035.16;;;14.85;100.00
11987;BME280;6053;51.382;6.768;2023-04-29T01:56:06;101036.31;;;15.28;100.00
11987;BME280;6053;51.382;6.768;2023-04-29T01:58:34;101037.78;;;15.14;100.00
11987;BME280;6053;51.382;6.768;2023-04-29T02:01:02;101041.72;;;16.01;100.00
11987;BME280;6053;51.382;6.768;2023-04-29T02:03:31;101039.41;;;16.20;100.00
11987;BME280;6053;51.382;6.768;2023-04-29T02:05:59;101054.41;;;16.19;100.00
11987;BME280;6053;51.382;6.768;2023-04-29T02:08:28;101055.31;;;15.97;100.00
11987;BME280;6053;51.382;6.768;2023-04-29T02:10:58;101051.72;;;15.36;100.00
11987;BME280;6053;51.382;6.768;2023-04-29T02:13:28;101054.00;;;15.22;100.00
11987;BME280;6053;51.382;6.768;2023-04-29T02:15:56;101053.75;;;15.85;100.00
11987;BME280;6053;51.382;6.768;2023-04-29T02:18:24;101063.06;;;16.22;100.00
11987;BME280;6053;51.382;6.768;2023-04-29T02:20:59;101064.75;;;15.14;100.00
11987;BME280;6053;51.382;6.768;2023-04-29T02:23:28;101059.72;;;14.94;100.00
11987;BME280;6053;51.382;6.768;2023-04-29T02:25:57;101078.34;;;15.71;100.00
11987;BME280;6053;51.382;6.768;2023-04-29T02:28:26;101075.31;;;16.21;100.00
11987;BME280;6053;51.382;6.768;2023-04-29T02:30:55;101075.41;;;16.26;100.00
11987;BME280;6053;51.382;6.768;2023-04-29T02:33:23;101072.81;;;16.47;100.00
11987;BME280;6053;51.382;6.768;2023-04-29T02:35:51;101074.47;;;15.94;100.00
11987;BME280;6053;51.382;6.768;2023-04-29T02:38:19;101074.19;;;16.17;100.00
11987;BME280;6053;51.382;6.768;2023-04-29T02:40:47;101081.16;;;16.47;100.00
11987;BME280;6053;51.382;6.768;2023-04-29T02:43:16;101081.81;;;16.59;100.00
11987;BME280;6053;51.382;6.768;2023-04-29T02:45:45;101087.56;;;16.20;100.00
11987;BME280;6053;51.382;6.768;2023-04-29T02:48:14;101090.50;;;16.36;100.00
11987;BME280;6053;51.382;6.768;2023-04-29T02:50:43;101086.53;;;16.54;100.00
11987;BME280;6053;51.382;6.768;2023-04-29T02:53:11;101089.31;;;16.54;99.03
11987;BME280;6053;51.382;6.768;2023-04-29T02:55:39;101092.38;;;16.03;100.00
11987;BME280;6053;51.382;6.768;2023-04-29T02:58:08;101100.16;;;16.28;100.00
11987;BME280;6053;51.382;6.768;2023-04-29T03:00:36;101103.16;;;16.48;100.00
11987;BME280;6053;51.382;6.768;2023-04-29T03:03:05;101095.13;;;16.52;99.10
11987;BME280;6053;51.382;6.768;2023-04-29T03:05:34;101106.56;;;16.56;98.90
11987;BME280;6053;51.382;6.768;2023-04-29T03:08:03;101100.44;;;16.54;98.87
11987;BME280;6053;51.382;6.768;2023-04-29T03:10:31;101108.28;;;16.57;98.56
11987;BME280;6053;51.382;6.768;2023-04-29T03:12:59;101110.72;;;16.53;98.26
11987;BME280;6053;51.382;6.768;2023-04-29T03:15:27;101105.25;;;16.36;98.82
11987;BME280;6053;51.382;6.768;2023-04-29T03:17:55;101107.50;;;15.29;100.00
11987;BME280;6053;51.382;6.768;2023-04-29T03:20:27;101115.44;;;15.76;100.00
11987;BME280;6053;51.382;6.768;2023-04-29T03:22:56;101119.28;;;16.19;100.00
11987;BME280;6053;51.382;6.768;2023-04-29T03:25:24;101126.66;;;16.31;100.00
11987;BME280;6053;51.382;6.768;2023-04-29T03:27:52;101133.97;;;16.37;99.47
11987;BME280;6053;51.382;6.768;2023-04-29T03:30:20;101127.25;;;15.89;100.00
11987;BME280;6053;51.382;6.768;2023-04-29T03:32:49;101129.16;;;16.32;99.58
11987;BME280;6053;51.382;6.768;2023-04-29T03:35:17;101130.25;;;15.09;100.00
11987;BME280;6053;51.382;6.768;2023-04-29T03:37:47;101126.69;;;15.31;100.00
11987;BME280;6053;51.382;6.768;2023-04-29T03:40:15;101128.16;;;15.72;100.00
11987;BME280;6053;51.382;6.768;2023-04-29T03:42:44;101130.56;;;16.08;100.00
11987;BME280;6053;51.382;6.768;2023-04-29T03:45:12;101133.09;;;15.87;99.70
11987;BME280;6053;51.382;6.768;2023-04-29T03:47:40;101136.03;;;16.02;100.00
11987;BME280;6053;51.382;6.768;2023-04-29T03:50:09;101128.56;;;16.03;100.00
11987;BME280;6053;51.382;6.768;2023-04-29T03:52:38;101135.78;;;16.26;99.58
11987;BME280;6053;51.382;6.768;2023-04-29T03:55:08;101139.22;;;16.11;100.00
11987;BME280;6053;51.382;6.768;2023-04-29T03:57:37;101138.31;;;16.27;99.24
11987;BME280;6053;51.382;6.768;2023-04-29T04:00:09;101138.03;;;16.29;98.54
11987;BME280;6053;51.382;6.768;2023-04-29T04:02:38;101137.50;;;16.32;98.04
11987;BME280;6053;51.382;6.768;2023-04-29T04:05:07;101144.72;;;16.28;98.21
11987;BME280;6053;51.382;6.768;2023-04-29T04:07:36;101145.63;;;15.68;100.00
11987;BME280;6053;51.382;6.768;2023-04-29T04:10:07;101141.53;;;16.19;100.00
11987;BME280;6053;51.382;6.768;2023-04-29T04:12:36;101147.81;;;15.32;100.00
11987;BME280;6053;51.382;6.768;2023-04-29T04:15:05;101153.19;;;15.72;100.00
11987;BME280;6053;51.382;6.768;2023-04-29T04:17:33;101157.72;;;15.78;99.46
11987;BME280;6053;51.382;6.768;2023-04-29T04:20:02;101158.00;;;16.21;98.80
11987;BME280;6053;51.382;6.768;2023-04-29T04:22:31;101160.00;;;16.25;98.03
11987;BME280;6053;51.382;6.768;2023-04-29T04:24:59;101161.72;;;16.32;97.56
11987;BME280;6053;51.382;6.768;2023-04-29T04:27:29;101162.00;;;16.30;97.71
11987;BME280;6053;51.382;6.768;2023-04-29T04:29:57;101166.72;;;16.30;97.29
11987;BME280;6053;51.382;6.768;2023-04-29T04:32:26;101171.13;;;16.25;97.35
11987;BME280;6053;51.382;6.768;2023-04-29T04:34:54;101167.91;;;16.34;96.99
11987;BME280;6053;51.382;6.768;2023-04-29T04:37:23;101177.78;;;16.02;99.18
11987;BME280;6053;51.382;6.768;2023-04-29T04:39:51;101175.53;;;16.21;97.84
11987;BME280;6053;51.382;6.768;2023-04-29T04:42:21;101177.34;;;16.11;98.26
11987;BME280;6053;51.382;6.768;2023-04-29T04:44:52;101180.06;;;15.84;95.89
11987;BME280;6053;51.382;6.768;2023-04-29T04:47:20;101195.41;;;16.08;98.61
11987;BME280;6053;51.382;6.768;2023-04-29T04:49:49;101186.50;;;15.89;99.62
11987;BME280;6053;51.382;6.768;2023-04-29T04:52:19;101190.75;;;16.14;97.91
11987;BME280;6053;51.382;6.768;2023-04-29T04:54:48;101197.66;;;15.89;99.06
11987;BME280;6053;51.382;6.768;2023-04-29T04:57:16;101199.94;;;16.14;97.28
11987;BME280;6053;51.382;6.768;2023-04-29T04:59:44;101203.09;;;16.23;96.85
11987;BME280;6053;51.382;6.768;2023-04-29T05:02:14;101196.50;;;15.68;100.00
11987;BME280;6053;51.382;6.768;2023-04-29T05:04:42;101197.94;;;16.10;98.33
11987;BME280;6053;51.382;6.768;2023-04-29T05:07:11;101198.19;;;16.08;97.95
11987;BME280;6053;51.382;6.768;2023-04-29T05:09:39;101205.13;;;16.27;96.67
11987;BME280;6053;51.382;6.768;2023-04-29T05:12:08;101204.13;;;15.73;98.12
11987;BME280;6053;51.382;6.768;2023-04-29T05:14:36;101208.41;;;15.47;100.00
11987;BME280;6053;51.382;6.768;2023-04-29T05:17:04;101208.75;;;15.17;98.84
11987;BME280;6053;51.382;6.768;2023-04-29T05:19:34;101219.75;;;15.62;100.00
11987;BME280;6053;51.382;6.768;2023-04-29T05:22:02;101222.63;;;16.06;98.08
11987;BME280;6053;51.382;6.768;2023-04-29T05:24:30;101230.19;;;15.89;98.68
11987;BME280;6053;51.382;6.768;2023-04-29T05:26:59;101224.41;;;15.40;100.00
11987;BME280;6053;51.382;6.768;2023-04-29T05:29:27;101235.03;;;15.76;100.00
11987;BME280;6053;51.382;6.768;2023-04-29T05:31:55;101231.66;;;16.13;97.41
11987;BME280;6053;51.382;6.768;2023-04-29T05:34:24;101237.66;;;15.83;98.09
11987;BME280;6053;51.382;6.768;2023-04-29T05:36:54;101236.72;;;16.16;96.48
11987;BME280;6053;51.382;6.768;2023-04-29T05:39:23;101247.22;;;15.92;97.52
11987;BME280;6053;51.382;6.768;2023-04-29T05:41:52;101252.28;;;15.62;98.80
11987;BME280;6053;51.382;6.768;2023-04-29T05:44:20;101247.19;;;15.08;100.00
11987;BME280;6053;51.382;6.768;2023-04-29T05:46:49;101253.56;;;15.37;100.00
11987;BME280;6053;51.382;6.768;2023-04-29T05:49:17;101257.75;;;15.06;100.00
11987;BME280;6053;51.382;6.768;2023-04-29T05:51:46;101253.69;;;15.14;100.00
11987;BME280;6053;51.382;6.768;2023-04-29T05:54:15;101261.47;;;15.79;99.61
11987;BME280;6053;51.382;6.768;2023-04-29T05:56:44;101252.41;;;16.06;97.06
11987;BME280;6053;51.382;6.768;2023-04-29T05:59:12;101263.13;;;16.14;95.64
11987;BME280;6053;51.382;6.768;2023-04-29T06:01:40;101272.56;;;15.28;100.00
11987;BME280;6053;51.382;6.768;2023-04-29T06:04:08;101269.91;;;15.84;98.33
11987;BME280;6053;51.382;6.768;2023-04-29T06:06:37;101277.56;;;16.11;96.28
11987;BME280;6053;51.382;6.768;2023-04-29T06:09:05;101278.22;;;15.17;100.00
11987;BME280;6053;51.382;6.768;2023-04-29T06:11:51;101280.78;;;15.86;98.08
11987;BME280;6053;51.382;6.768;2023-04-29T06:14:19;101281.91;;;15.22;100.00
11987;BME280;6053;51.382;6.768;2023-04-29T06:16:48;101297.47;;;15.86;98.16
11987;BME280;6053;51.382;6.768;2023-04-29T06:19:16;101296.72;;;16.07;96.50
11987;BME280;6053;51.382;6.768;2023-04-29T06:21:45;101293.66;;;16.09;95.34
11987;BME280;6053;51.382;6.768;2023-04-29T06:24:13;101298.72;;;15.95;96.41
11987;BME280;6053;51.382;6.768;2023-04-29T06:26:41;101308.41;;;16.09;95.57
11987;BME280;6053;51.382;6.768;2023-04-29T06:29:11;101315.59;;;16.05;96.15
11987;BME280;6053;51.382;6.768;2023-04-29T06:31:39;101319.19;;;16.22;94.36
11987;BME280;6053;51.382;6.768;2023-04-29T06:34:08;101318.09;;;16.23;94.36
11987;BME280;6053;51.382;6.768;2023-04-29T06:36:36;101312.97;;;15.98;95.84
11987;BME280;6053;51.382;6.768;2023-04-29T06:39:05;101311.78;;;16.11;95.03
11987;BME280;6053;51.382;6.768;2023-04-29T06:41:33;101326.03;;;15.47;94.37
11987;BME280;6053;51.382;6.768;2023-04-29T06:44:02;101325.25;;;15.52;99.01
11987;BME280;6053;51.382;6.768;2023-04-29T06:46:32;101323.78;;;15.78;96.57
11987;BME280;6053;51.382;6.768;2023-04-29T06:49:00;101327.38;;;15.62;97.01
11987;BME280;6053;51.382;6.768;2023-04-29T06:51:29;101326.19;;;15.57;95.41
11987;BME280;6053;51.382;6.768;2023-04-29T06:53:58;101332.63;;;15.75;97.20
11987;BME280;6053;51.382;6.768;2023-04-29T06:56:26;101336.06;;;14.51;99.70
11987;BME280;6053;51.382;6.768;2023-04-29T06:58:54;101335.34;;;14.55;100.00
11987;BME280;6053;51.382;6.768;2023-04-29T07:01:23;101342.25;;;14.81;100.00
11987;BME280;6053;51.382;6.768;2023-04-29T07:03:52;101347.53;;;15.69;98.27
11987;BME280;6053;51.382;6.768;2023-04-29T07:06:21;101348.09;;;15.54;99.44
11987;BME280;6053;51.382;6.768;2023-04-29T07:08:49;101355.38;;;14.98;98.57
11987;BME280;6053;51.382;6.768;2023-04-29T07:11:19;101350.34;;;15.40;100.00
11987;BME280;6053;51.382;6.768;2023-04-29T07:13:47;101357.53;;;13.85;100.00
11987;BME280;6053;51.382;6.768;2023-04-29T07:16:16;101370.38;;;14.85;100.00
11987;BME280;6053;51.382;6.768;2023-04-29T07:18:46;101365.09;;;15.12;100.00
11987;BME280;6053;51.382;6.768;2023-04-29T07:21:16;101367.19;;;15.05;100.00
11987;BME280;6053;51.382;6.768;2023-04-29T07:23:45;101370.69;;;15.57;99.43
11987;BME280;6053;51.382;6.768;2023-04-29T07:26:15;101372.88;;;15.55;98.32
11987;BME280;6053;51.382;6.768;2023-04-29T07:28:44;101389.72;;;15.20;98.80
11987;BME280;6053;51.382;6.768;2023-04-29T07:31:12;101380.38;;;15.84;96.98
11987;BME280;6053;51.382;6.768;2023-04-29T07:33:41;101383.88;;;15.96;95.63
11987;BME280;6053;51.382;6.768;2023-04-29T07:36:10;101393.69;;;16.15;93.61
11987;BME280;6053;51.382;6.768;2023-04-29T07:38:39;101397.78;;;16.30;92.62
11987;BME280;6053;51.382;6.768;2023-04-29T07:41:08;101402.88;;;15.53;98.62
11987;BME280;6053;51.382;6.768;2023-04-29T07:43:36;101403.13;;;15.81;95.20
11987;BME280;6053;51.382;6.768;2023-04-29T07:46:07;101403.72;;;15.99;94.21
11987;BME280;6053;51.382;6.768;2023-04-29T07:48:36;101410.66;;;16.14;93.85
11987;BME280;6053;51.382;6.768;2023-04-29T07:51:05;101410.31;;;16.10;93.77
11987;BME280;6053;51.382;6.768;2023-04-29T07:53:34;101401.28;;;15.86;94.79
11987;BME280;6053;51.382;6.768;2023-04-29T07:56:07;101410.13;;;16.00;93.61
11987;BME280;6053;51.382;6.768;2023-04-29T07:58:35;101411.66;;;16.08;93.55
11987;BME280;6053;51.382;6.768;2023-04-29T08:01:07;101407.91;;;15.40;97.96
11987;BME280;6053;51.382;6.768;2023-04-29T08:03:36;101421.94;;;15.62;96.87
11987;BME280;6053;51.382;6.768;2023-04-29T08:06:08;101428.38;;;14.70;100.00
11987;BME280;6053;51.382;6.768;2023-04-29T08:08:36;101431.75;;;14.83;100.00
11987;BME280;6053;51.382;6.768;2023-04-29T08:11:06;101427.81;;;15.08;100.00
11987;BME280;6053;51.382;6.768;2023-04-29T08:13:34;101439.25;;;14.71;100.00
11987;BME280;6053;51.382;6.768;2023-04-29T08:16:02;101431.06;;;15.17;100.00
11987;BME280;6053;51.382;6.768;2023-04-29T08:18:31;101439.06;;;14.07;100.00
11987;BME280;6053;51.382;6.768;2023-04-29T08:20:59;101436.56;;;15.00;100.00
11987;BME280;6053;51.382;6.768;2023-04-29T08:23:27;101440.09;;;15.24;99.48
11987;BME280;6053;51.382;6.768;2023-04-29T08:25:56;101441.84;;;15.42;99.01
11987;BME280;6053;51.382;6.768;2023-04-29T08:28:25;101445.09;;;15.79;96.18
11987;BME280;6053;51.382;6.768;2023-04-29T08:30:54;101449.41;;;15.87;94.47
11987;BME280;6053;51.382;6.768;2023-04-29T08:33:22;101454.81;;;14.60;100.00
11987;BME280;6053;51.382;6.768;2023-04-29T08:35:57;101457.47;;;14.91;100.00
11987;BME280;6053;51.382;6.768;2023-04-29T08:38:26;101459.22;;;14.03;100.00
11987;BME280;6053;51.382;6.768;2023-04-29T08:40:55;101456.28;;;13.56;100.00
11987;BME280;6053;51.382;6.768;2023-04-29T08:43:25;101464.91;;;13.48;100.00
11987;BME280;6053;51.382;6.768;2023-04-29T08:45:54;101463.41;;;14.82;100.00
11987;BME280;6053;51.382;6.768;2023-04-29T08:48:26;101465.03;;;14.25;100.00
11987;BME280;6053;51.382;6.768;2023-04-29T08:50:55;101465.19;;;14.89;100.00
11987;BME280;6053;51.382;6.768;2023-04-29T08:53:24;101471.69;;;14.94;96.66
11987;BME280;6053;51.382;6.768;2023-04-29T08:55:54;101471.72;;;14.71;100.00
11987;BME280;6053;51.382;6.768;2023-04-29T08:58:27;101471.91;;;15.16;100.00
11987;BME280;6053;51.382;6.768;2023-04-29T09:00:56;101483.47;;;15.37;97.07
11987;BME280;6053;51.382;6.768;2023-04-29T09:03:30;101489.22;;;14.95;99.76
11987;BME280;6053;51.382;6.768;2023-04-29T09:06:02;101487.66;;;14.64;100.00
11987;BME280;6053;51.382;6.768;2023-04-29T09:08:32;101488.91;;;15.31;98.81
11987;BME280;6053;51.382;6.768;2023-04-29T09:11:01;101489.75;;;15.72;94.69
11987;BME280;6053;51.382;6.768;2023-04-29T09:13:31;101491.47;;;15.73;94.09
11987;BME280;6053;51.382;6.768;2023-04-29T09:16:00;101494.59;;;15.65;93.03
11987;BME280;6053;51.382;6.768;2023-04-29T09:18:48;101498.78;;;14.87;100.00
11987;BME280;6053;51.382;6.768;2023-04-29T09:21:19;101495.53;;;14.67;99.35
11987;BME280;6053;51.382;6.768;2023-04-29T09:23:51;101494.91;;;14.88;97.90
11987;BME280;6053;51.382;6.768;2023-04-29T09:26:19;101500.19;;;15.13;94.47
11987;BME280;6053;51.382;6.768;2023-04-29T09:29:06;101503.75;;;15.37;96.98
11987;BME280;6053;51.382;6.768;2023-04-29T09:31:37;101504.25;;;15.34;97.79
11987;BME280;6053;51.382;6.768;2023-04-29T09:34:06;101514.00;;;14.73;96.02
11987;BME280;6053;51.382;6.768;2023-04-29T09:36:36;101513.06;;;15.43;96.97
11987;BME280;6053;51.382;6.768;2023-04-29T09:39:05;101517.94;;;15.64;93.81
11987;BME280;6053;51.382;6.768;2023-04-29T09:41:59;101515.94;;;15.48;95.81
11987;BME280;6053;51.382;6.768;2023-04-29T09:44:32;101522.56;;;15.70;94.54
11987;BME280;6053;51.382;6.768;2023-04-29T09:47:03;101518.91;;;15.29;90.85
11987;BME280;6053;51.382;6.768;2023-04-29T09:49:34;101531.63;;;14.90;93.73
11987;BME280;6053;51.382;6.768;2023-04-29T09:52:05;101525.19;;;14.54;100.00
11987;BME280;6053;51.382;6.768;2023-04-29T09:54:36;101523.09;;;15.44;97.08
11987;BME280;6053;51.382;6.768;2023-04-29T09:57:06;101524.91;;;15.78;94.18
11987;BME280;6053;51.382;6.768;2023-04-29T09:59:37;101532.09;;;16.03;92.22
11987;BME280;6053;51.382;6.768;2023-04-29T10:02:11;101523.59;;;16.10;91.44
11987;BME280;6053;51.382;6.768;2023-04-29T10:04:45;101540.44;;;16.03;90.92
11987;BME280;6053;51.382;6.768;2023-04-29T10:07:14;101538.44;;;16.32;89.50
11987;BME280;6053;51.382;6.768;2023-04-29T10:09:44;101537.75;;;15.79;92.49
11987;BME280;6053;51.382;6.768;2023-04-29T10:12:15;101544.38;;;15.38;92.59
11987;BME280;6053;51.382;6.768;2023-04-29T10:14:52;101547.63;;;15.35;93.92
11987;BME280;6053;51.382;6.768;2023-04-29T10:17:27;101541.78;;;14.73;94.35
11987;BME280;6053;51.382;6.768;2023-04-29T10:20:03;101547.59;;;15.70;91.35
11987;BME280;6053;51.382;6.768;2023-04-29T10:22:43;101552.16;;;15.13;89.29
11987;BME280;6053;51.382;6.768;2023-04-29T10:25:13;101550.44;;;15.87;88.71
11987;BME280;6053;51.382;6.768;2023-04-29T10:27:43;101553.09;;;16.11;87.21
11987;BME280;6053;51.382;6.768;2023-04-29T10:30:16;101552.31;;;16.44;85.16
11987;BME280;6053;51.382;6.768;2023-04-29T10:32:47;101554.88;;;15.88;85.58
11987;BME280;6053;51.382;6.768;2023-04-29T10:35:20;101552.88;;;15.72;90.53
11987;BME280;6053;51.382;6.768;2023-04-29T10:37:53;101552.31;;;15.70;88.61
11987;BME280;6053;51.382;6.768;2023-04-29T10:40:30;101551.84;;;15.49;88.47
11987;BME280;6053;51.382;6.768;2023-04-29T10:43:05;101546.53;;;15.88;89.78
11987;BME280;6053;51.382;6.768;2023-04-29T10:45:35;101560.88;;;16.25;87.92
11987;BME280;6053;51.382;6.768;2023-04-29T10:48:12;101557.03;;;15.98;85.58
11987;BME280;6053;51.382;6.768;2023-04-29T10:51:01;101565.38;;;16.26;87.81
11987;BME280;6053;51.382;6.768;2023-04-29T10:53:29;101563.00;;;16.81;84.42
11987;BME280;6053;51.382;6.768;2023-04-29T10:56:03;101557.75;;;17.23;81.62
11987;BME280;6053;51.382;6.768;2023-04-29T10:58:41;101567.44;;;16.19;81.21
11987;BME280;6053;51.382;6.768;2023-04-29T11:01:12;101559.56;;;15.71;84.07
11987;BME280;6053;51.382;6.768;2023-04-29T11:03:54;101566.97;;;16.56;83.85
11987;BME280;6053;51.382;6.768;2023-04-29T11:06:38;101569.38;;;17.37;81.13
11987;BME280;6053;51.382;6.768;2023-04-29T11:09:10;101569.53;;;14.84;88.23
11987;BME280;6053;51.382;6.768;2023-04-29T11:11:46;101568.66;;;15.43;89.71
11987;BME280;6053;51.382;6.768;2023-04-29T11:14:23;101572.66;;;16.44;84.64
11987;BME280;6053;51.382;6.768;2023-04-29T11:16:56;101570.78;;;17.17;82.12
11987;BME280;6053;51.382;6.768;2023-04-29T11:19:30;101565.91;;;17.90;78.50
11987;BME280;6053;51.382;6.768;2023-04-29T11:22:12;101561.81;;;17.98;77.95
11987;BME280;6053;51.382;6.768;2023-04-29T11:24:53;101560.09;;;16.92;82.94
11987;BME280;6053;51.382;6.768;2023-04-29T11:27:24;101568.41;;;17.70;79.48
11987;BME280;6053;51.382;6.768;2023-04-29T11:29:54;101564.91;;;16.63;79.23
11987;BME280;6053;51.382;6.768;2023-04-29T11:32:27;101571.97;;;17.43;79.45
11987;BME280;6053;51.382;6.768;2023-04-29T11:35:07;101563.56;;;18.04;77.85
11987;BME280;6053;51.382;6.768;2023-04-29T11:37:36;101560.53;;;17.84;76.81
11987;BME280;6053;51.382;6.768;2023-04-29T11:40:07;101569.28;;;18.47;75.35
11987;BME280;6053;51.382;6.768;2023-04-29T11:42:40;101575.72;;;18.47;74.85
11987;BME280;6053;51.382;6.768;2023-04-29T11:45:09;101572.66;;;17.95;77.18
11987;BME280;6053;51.382;6.768;2023-04-29T11:47:43;101562.66;;;17.77;78.83
11987;BME280;6053;51.382;6.768;2023-04-29T11:50:13;101561.81;;;17.54;79.39
11987;BME280;6053;51.382;6.768;2023-04-29T11:52:46;101561.28;;;16.80;81.19
11987;BME280;6053;51.382;6.768;2023-04-29T11:55:15;101568.84;;;17.40;81.22
11987;BME280;6053;51.382;6.768;2023-04-29T11:57:44;101576.28;;;17.12;79.71
11987;BME280;6053;51.382;6.768;2023-04-29T12:00:16;101573.25;;;17.14;82.10
11987;BME280;6053;51.382;6.768;2023-04-29T12:02:46;101570.75;;;17.34;80.90
11987;BME280;6053;51.382;6.768;2023-04-29T12:05:14;101576.28;;;17.51;82.43
11987;BME280;6053;51.382;6.768;2023-04-29T12:07:45;101575.72;;;17.93;79.16
11987;BME280;6053;51.382;6.768;2023-04-29T12:10:16;101569.13;;;16.83;78.99
11987;BME280;6053;51.382;6.768;2023-04-29T12:12:44;101576.03;;;16.46;85.18
11987;BME280;6053;51.382;6.768;2023-04-29T12:15:13;101571.03;;;16.65;84.61
11987;BME280;6053;51.382;6.768;2023-04-29T12:17:42;101569.69;;;16.68;83.30
11987;BME280;6053;51.382;6.768;2023-04-29T12:20:14;101574.59;;;17.72;82.61
11987;BME280;6053;51.382;6.768;2023-04-29T12:22:42;101562.38;;;18.00;76.15
11987;BME280;6053;51.382;6.768;2023-04-29T12:25:11;101562.47;;;17.61;80.43
11987;BME280;6053;51.382;6.768;2023-04-29T12:27:40;101564.44;;;17.22;80.42
11987;BME280;6053;51.382;6.768;2023-04-29T12:30:10;101558.84;;;17.83;79.42
11987;BME280;6053;51.382;6.768;2023-04-29T12:32:39;101566.47;;;17.10;76.63
11987;BME280;6053;51.382;6.768;2023-04-29T12:35:16;101568.72;;;16.29;85.53
11987;BME280;6053;51.382;6.768;2023-04-29T12:37:48;101567.25;;;17.05;81.32
11987;BME280;6053;51.382;6.768;2023-04-29T12:40:17;101565.59;;;17.26;83.38
11987;BME280;6053;51.382;6.768;2023-04-29T12:42:47;101566.78;;;17.30;79.01
11987;BME280;6053;51.382;6.768;2023-04-29T12:45:30;101572.97;;;16.31;80.35
11987;BME280;6053;51.382;6.768;2023-04-29T12:47:59;101569.78;;;16.56;86.68
11987;BME280;6053;51.382;6.768;2023-04-29T12:50:32;101568.56;;;16.35;77.37
11987;BME280;6053;51.382;6.768;2023-04-29T12:53:02;101562.28;;;16.40;88.66
11987;BME280;6053;51.382;6.768;2023-04-29T12:55:32;101570.69;;;16.28;86.13
11987;BME280;6053;51.382;6.768;2023-04-29T12:58:01;101570.09;;;16.60;88.31
11987;BME280;6053;51.382;6.768;2023-04-29T13:00:30;101574.50;;;17.06;85.80
11987;BME280;6053;51.382;6.768;2023-04-29T13:02:58;101576.44;;;16.72;80.95
11987;BME280;6053;51.382;6.768;2023-04-29T13:05:27;101569.41;;;16.81;82.75
11987;BME280;6053;51.382;6.768;2023-04-29T13:07:57;101577.41;;;17.33;82.94
11987;BME280;6053;51.382;6.768;2023-04-29T13:10:25;101575.19;;;17.52;82.67
11987;BME280;6053;51.382;6.768;2023-04-29T13:12:54;101579.59;;;17.48;83.16